sensor_id;sensor_type;location;lat;lon;timestamp;P1;durP1;ratioP1;P2;durP2;ratioP2
57113;SDS011;42994;51.606;9.988;2022-09-30T00:00:53;4.03;;;3.13;;
57113;SDS011;42994;51.606;9.988;2022-09-30T00:03:22;7.82;;;3.50;;
57113;SDS011;42994;51.606;9.988;2022-09-30T00:05:54;3.45;;;3.15;;
57113;SDS011;42994;51.606;9.988;2022-09-30T00:08:22;4.43;;;4.00;;
57113;SDS011;42994;51.606;9.988;2022-09-30T00:10:56;4.25;;;3.78;;
57113;SDS011;42994;51.606;9.988;2022-09-30T00:13:24;3.78;;;3.00;;
57113;SDS011;42994;51.606;9.988;2022-09-30T00:15:51;4.88;;;3.95;;
57113;SDS011;42994;51.606;9.988;2022-09-30T00:18:17;5.35;;;4.28;;
57113;SDS011;42994;51.606;9.988;2022-09-30T00:20:45;4.97;;;4.47;;
57113;SDS011;42994;51.606;9.988;2022-09-30T00:23:12;4.60;;;4.07;;
57113;SDS011;42994;51.606;9.988;2022-09-30T00:25:38;6.22;;;4.88;;
57113;SDS011;42994;51.606;9.988;2022-09-30T00:28:05;4.95;;;4.45;;
57113;SDS011;42994;51.606;9.988;2022-09-30T00:30:32;4.80;;;3.88;;
57113;SDS011;42994;51.606;9.988;2022-09-30T00:32:59;4.53;;;4.10;;
57113;SDS011;42994;51.606;9.988;2022-09-30T00:35:25;3.80;;;3.40;;
57113;SDS011;42994;51.606;9.988;2022-09-30T00:37:54;4.15;;;3.75;;
57113;SDS011;42994;51.606;9.988;2022-09-30T00:40:20;4.03;;;3.22;;
57113;SDS011;42994;51.606;9.988;2022-09-30T00:42:47;4.40;;;3.38;;
57113;SDS011;42994;51.606;9.988;2022-09-30T00:45:14;6.15;;;4.05;;
57113;SDS011;42994;51.606;9.988;2022-09-30T00:47:45;4.63;;;3.63;;
57113;SDS011;42994;51.606;9.988;2022-09-30T00:53:13;4.55;;;3.67;;
57113;SDS011;42994;51.606;9.988;2022-09-30T00:55:45;4.18;;;3.58;;
57113;SDS011;42994;51.606;9.988;2022-09-30T01:00:46;4.93;;;4.32;;
57113;SDS011;42994;51.606;9.988;2022-09-30T01:03:14;3.55;;;3.25;;
57113;SDS011;42994;51.606;9.988;2022-09-30T01:05:41;3.45;;;3.15;;
57113;SDS011;42994;51.606;9.988;2022-09-30T01:08:08;3.10;;;2.83;;
57113;SDS011;42994;51.606;9.988;2022-09-30T01:10:37;4.05;;;3.33;;
57113;SDS011;42994;51.606;9.988;2022-09-30T01:13:04;5.25;;;3.28;;
57113;SDS011;42994;51.606;9.988;2022-09-30T01:15:34;4.20;;;3.55;;
57113;SDS011;42994;51.606;9.988;2022-09-30T01:18:18;5.00;;;3.45;;
57113;SDS011;42994;51.606;9.988;2022-09-30T01:20:57;3.45;;;3.15;;
57113;SDS011;42994;51.606;9.988;2022-09-30T01:23:46;5.03;;;2.90;;
57113;SDS011;42994;51.606;9.988;2022-09-30T01:29:41;3.50;;;3.20;;
57113;SDS011;42994;51.606;9.988;2022-09-30T01:32:46;4.75;;;3.35;;
57113;SDS011;42994;51.606;9.988;2022-09-30T01:35:26;3.67;;;3.35;;
57113;SDS011;42994;51.606;9.988;2022-09-30T01:38:00;3.42;;;3.13;;
57113;SDS011;42994;51.606;9.988;2022-09-30T01:40:36;3.53;;;3.22;;
57113;SDS011;42994;51.606;9.988;2022-09-30T01:43:09;4.07;;;3.45;;
57113;SDS011;42994;51.606;9.988;2022-09-30T01:45:42;3.92;;;3.40;;
57113;SDS011;42994;51.606;9.988;2022-09-30T01:48:17;4.13;;;3.63;;
57113;SDS011;42994;51.606;9.988;2022-09-30T01:50:49;4.00;;;3.63;;
57113;SDS011;42994;51.606;9.988;2022-09-30T01:53:21;4.40;;;3.20;;
57113;SDS011;42994;51.606;9.988;2022-09-30T01:55:54;3.67;;;3.33;;
57113;SDS011;42994;51.606;9.988;2022-09-30T01:58:31;3.55;;;3.25;;
57113;SDS011;42994;51.606;9.988;2022-09-30T02:01:06;4.28;;;3.28;;
57113;SDS011;42994;51.606;9.988;2022-09-30T02:03:37;4.47;;;3.25;;
57113;SDS011;42994;51.606;9.988;2022-09-30T02:06:10;4.07;;;3.78;;
57113;SDS011;42994;51.606;9.988;2022-09-30T02:08:43;4.18;;;3.78;;
57113;SDS011;42994;51.606;9.988;2022-09-30T02:11:14;4.68;;;3.97;;
57113;SDS011;42994;51.606;9.988;2022-09-30T02:13:46;6.95;;;4.22;;
57113;SDS011;42994;51.606;9.988;2022-09-30T02:16:18;4.55;;;3.95;;
57113;SDS011;42994;51.606;9.988;2022-09-30T02:18:50;4.78;;;4.18;;
57113;SDS011;42994;51.606;9.988;2022-09-30T02:21:21;4.50;;;3.80;;
57113;SDS011;42994;51.606;9.988;2022-09-30T02:23:49;6.80;;;3.75;;
57113;SDS011;42994;51.606;9.988;2022-09-30T02:26:22;4.82;;;4.32;;
57113;SDS011;42994;51.606;9.988;2022-09-30T02:28:53;4.80;;;4.05;;
57113;SDS011;42994;51.606;9.988;2022-09-30T02:31:25;4.63;;;4.00;;
57113;SDS011;42994;51.606;9.988;2022-09-30T02:33:56;4.88;;;3.90;;
57113;SDS011;42994;51.606;9.988;2022-09-30T02:36:30;5.03;;;4.45;;
57113;SDS011;42994;51.606;9.988;2022-09-30T02:39:03;9.40;;;5.38;;
57113;SDS011;42994;51.606;9.988;2022-09-30T02:41:33;5.47;;;4.82;;
57113;SDS011;42994;51.606;9.988;2022-09-30T02:44:06;7.70;;;5.82;;
57113;SDS011;42994;51.606;9.988;2022-09-30T02:46:36;7.80;;;5.50;;
57113;SDS011;42994;51.606;9.988;2022-09-30T02:49:12;8.57;;;5.13;;
57113;SDS011;42994;51.606;9.988;2022-09-30T02:51:50;8.82;;;4.93;;
57113;SDS011;42994;51.606;9.988;2022-09-30T02:54:28;6.97;;;4.82;;
57113;SDS011;42994;51.606;9.988;2022-09-30T02:57:02;14.35;;;5.53;;
57113;SDS011;42994;51.606;9.988;2022-09-30T02:59:37;7.20;;;5.03;;
57113;SDS011;42994;51.606;9.988;2022-09-30T03:02:04;9.00;;;5.32;;
57113;SDS011;42994;51.606;9.988;2022-09-30T03:04:32;6.25;;;4.80;;
57113;SDS011;42994;51.606;9.988;2022-09-30T03:07:00;5.20;;;4.47;;
57113;SDS011;42994;51.606;9.988;2022-09-30T03:09:27;5.13;;;4.15;;
57113;SDS011;42994;51.606;9.988;2022-09-30T03:11:55;9.98;;;5.30;;
57113;SDS011;42994;51.606;9.988;2022-09-30T03:14:39;9.43;;;4.82;;
57113;SDS011;42994;51.606;9.988;2022-09-30T03:20:25;7.30;;;4.80;;
57113;SDS011;42994;51.606;9.988;2022-09-30T03:23:15;13.63;;;7.30;;
57113;SDS011;42994;51.606;9.988;2022-09-30T03:25:55;15.52;;;7.43;;
57113;SDS011;42994;51.606;9.988;2022-09-30T03:28:32;21.67;;;8.23;;
57113;SDS011;42994;51.606;9.988;2022-09-30T03:31:09;26.58;;;10.80;;
57113;SDS011;42994;51.606;9.988;2022-09-30T03:33:46;24.50;;;8.52;;
57113;SDS011;42994;51.606;9.988;2022-09-30T03:36:22;25.83;;;8.75;;
57113;SDS011;42994;51.606;9.988;2022-09-30T03:38:56;34.80;;;10.88;;
57113;SDS011;42994;51.606;9.988;2022-09-30T03:41:30;35.05;;;11.77;;
57113;SDS011;42994;51.606;9.988;2022-09-30T03:44:01;31.63;;;11.32;;
57113;SDS011;42994;51.606;9.988;2022-09-30T03:46:34;31.88;;;11.38;;
57113;SDS011;42994;51.606;9.988;2022-09-30T03:49:06;27.23;;;10.27;;
57113;SDS011;42994;51.606;9.988;2022-09-30T03:51:39;32.33;;;10.13;;
57113;SDS011;42994;51.606;9.988;2022-09-30T03:54:07;32.30;;;10.40;;
57113;SDS011;42994;51.606;9.988;2022-09-30T03:56:34;30.00;;;11.60;;
57113;SDS011;42994;51.606;9.988;2022-09-30T03:59:07;26.30;;;10.50;;
57113;SDS011;42994;51.606;9.988;2022-09-30T04:01:35;31.20;;;11.00;;
57113;SDS011;42994;51.606;9.988;2022-09-30T04:04:03;32.13;;;12.00;;
57113;SDS011;42994;51.606;9.988;2022-09-30T04:06:30;35.17;;;11.70;;
57113;SDS011;42994;51.606;9.988;2022-09-30T04:08:58;23.42;;;10.43;;
57113;SDS011;42994;51.606;9.988;2022-09-30T04:11:24;27.65;;;11.55;;
57113;SDS011;42994;51.606;9.988;2022-09-30T04:13:51;32.05;;;11.60;;
57113;SDS011;42994;51.606;9.988;2022-09-30T04:16:18;29.40;;;11.82;;
57113;SDS011;42994;51.606;9.988;2022-09-30T04:18:44;24.63;;;10.35;;
57113;SDS011;42994;51.606;9.988;2022-09-30T04:21:11;18.95;;;9.95;;
57113;SDS011;42994;51.606;9.988;2022-09-30T04:23:39;18.95;;;9.73;;
57113;SDS011;42994;51.606;9.988;2022-09-30T04:26:10;18.50;;;9.65;;
57113;SDS011;42994;51.606;9.988;2022-09-30T04:28:38;19.27;;;9.50;;
57113;SDS011;42994;51.606;9.988;2022-09-30T04:31:05;16.17;;;8.57;;
57113;SDS011;42994;51.606;9.988;2022-09-30T04:33:32;10.90;;;7.75;;
57113;SDS011;42994;51.606;9.988;2022-09-30T04:35:59;14.45;;;8.13;;
57113;SDS011;42994;51.606;9.988;2022-09-30T04:38:26;15.00;;;7.78;;
57113;SDS011;42994;51.606;9.988;2022-09-30T04:40:53;10.57;;;7.25;;
57113;SDS011;42994;51.606;9.988;2022-09-30T04:43:22;14.57;;;7.90;;
57113;SDS011;42994;51.606;9.988;2022-09-30T04:45:50;12.32;;;7.90;;
57113;SDS011;42994;51.606;9.988;2022-09-30T04:48:18;12.02;;;7.75;;
57113;SDS011;42994;51.606;9.988;2022-09-30T04:50:46;13.65;;;7.82;;
57113;SDS011;42994;51.606;9.988;2022-09-30T04:53:13;12.07;;;7.80;;
57113;SDS011;42994;51.606;9.988;2022-09-30T04:55:41;14.85;;;8.60;;
57113;SDS011;42994;51.606;9.988;2022-09-30T04:58:08;13.35;;;7.82;;
57113;SDS011;42994;51.606;9.988;2022-09-30T05:00:36;12.55;;;7.30;;
57113;SDS011;42994;51.606;9.988;2022-09-30T05:03:03;13.52;;;6.80;;
57113;SDS011;42994;51.606;9.988;2022-09-30T05:05:30;14.60;;;7.63;;
57113;SDS011;42994;51.606;9.988;2022-09-30T05:07:58;13.35;;;8.23;;
57113;SDS011;42994;51.606;9.988;2022-09-30T05:10:26;13.48;;;7.65;;
57113;SDS011;42994;51.606;9.988;2022-09-30T05:12:54;13.23;;;8.27;;
57113;SDS011;42994;51.606;9.988;2022-09-30T05:15:22;15.52;;;9.23;;
57113;SDS011;42994;51.606;9.988;2022-09-30T05:17:50;14.77;;;8.43;;
57113;SDS011;42994;51.606;9.988;2022-09-30T05:20:17;13.50;;;7.95;;
57113;SDS011;42994;51.606;9.988;2022-09-30T05:22:44;10.68;;;7.13;;
57113;SDS011;42994;51.606;9.988;2022-09-30T05:25:11;14.27;;;7.80;;
57113;SDS011;42994;51.606;9.988;2022-09-30T05:27:38;11.05;;;7.82;;
57113;SDS011;42994;51.606;9.988;2022-09-30T05:30:05;10.73;;;7.45;;
57113;SDS011;42994;51.606;9.988;2022-09-30T05:32:32;9.75;;;7.22;;
57113;SDS011;42994;51.606;9.988;2022-09-30T05:35:00;12.90;;;7.38;;
57113;SDS011;42994;51.606;9.988;2022-09-30T05:37:27;14.50;;;7.20;;
57113;SDS011;42994;51.606;9.988;2022-09-30T05:39:54;15.38;;;7.80;;
57113;SDS011;42994;51.606;9.988;2022-09-30T05:42:21;10.00;;;7.75;;
57113;SDS011;42994;51.606;9.988;2022-09-30T05:44:48;10.57;;;7.43;;
57113;SDS011;42994;51.606;9.988;2022-09-30T05:47:14;11.25;;;7.32;;
57113;SDS011;42994;51.606;9.988;2022-09-30T05:49:41;10.77;;;7.00;;
57113;SDS011;42994;51.606;9.988;2022-09-30T05:52:10;15.70;;;7.10;;
57113;SDS011;42994;51.606;9.988;2022-09-30T05:54:37;12.55;;;7.35;;
57113;SDS011;42994;51.606;9.988;2022-09-30T05:57:04;12.98;;;8.13;;
57113;SDS011;42994;51.606;9.988;2022-09-30T05:59:31;13.00;;;8.35;;
57113;SDS011;42994;51.606;9.988;2022-09-30T06:01:58;9.90;;;7.47;;
57113;SDS011;42994;51.606;9.988;2022-09-30T06:04:25;15.15;;;8.50;;
57113;SDS011;42994;51.606;9.988;2022-09-30T06:06:52;17.77;;;7.97;;
57113;SDS011;42994;51.606;9.988;2022-09-30T06:09:19;10.32;;;7.70;;
57113;SDS011;42994;51.606;9.988;2022-09-30T06:11:46;11.30;;;7.32;;
57113;SDS011;42994;51.606;9.988;2022-09-30T06:14:13;11.43;;;7.30;;
57113;SDS011;42994;51.606;9.988;2022-09-30T06:16:41;9.70;;;6.63;;
57113;SDS011;42994;51.606;9.988;2022-09-30T06:19:07;12.35;;;7.45;;
57113;SDS011;42994;51.606;9.988;2022-09-30T06:21:34;16.80;;;8.13;;
57113;SDS011;42994;51.606;9.988;2022-09-30T06:24:00;18.13;;;10.52;;
57113;SDS011;42994;51.606;9.988;2022-09-30T06:26:29;15.45;;;10.00;;
57113;SDS011;42994;51.606;9.988;2022-09-30T06:28:55;20.42;;;11.48;;
57113;SDS011;42994;51.606;9.988;2022-09-30T06:31:22;18.63;;;11.23;;
57113;SDS011;42994;51.606;9.988;2022-09-30T06:33:50;19.60;;;10.73;;
57113;SDS011;42994;51.606;9.988;2022-09-30T06:36:17;14.68;;;10.35;;
57113;SDS011;42994;51.606;9.988;2022-09-30T06:38:44;17.92;;;10.70;;
57113;SDS011;42994;51.606;9.988;2022-09-30T06:41:15;28.73;;;13.75;;
57113;SDS011;42994;51.606;9.988;2022-09-30T06:43:43;24.10;;;15.50;;
57113;SDS011;42994;51.606;9.988;2022-09-30T06:46:10;23.10;;;14.50;;
57113;SDS011;42994;51.606;9.988;2022-09-30T06:48:37;23.23;;;14.23;;
57113;SDS011;42994;51.606;9.988;2022-09-30T06:51:04;28.63;;;15.73;;
57113;SDS011;42994;51.606;9.988;2022-09-30T06:53:34;21.08;;;13.02;;
57113;SDS011;42994;51.606;9.988;2022-09-30T06:56:01;17.17;;;11.80;;
57113;SDS011;42994;51.606;9.988;2022-09-30T06:58:29;18.63;;;11.05;;
57113;SDS011;42994;51.606;9.988;2022-09-30T07:00:57;15.73;;;9.45;;
57113;SDS011;42994;51.606;9.988;2022-09-30T07:03:26;16.55;;;11.02;;
57113;SDS011;42994;51.606;9.988;2022-09-30T07:05:55;20.25;;;12.05;;
57113;SDS011;42994;51.606;9.988;2022-09-30T07:08:23;16.45;;;10.98;;
57113;SDS011;42994;51.606;9.988;2022-09-30T07:10:53;18.27;;;12.18;;
57113;SDS011;42994;51.606;9.988;2022-09-30T07:13:20;14.75;;;10.73;;
57113;SDS011;42994;51.606;9.988;2022-09-30T07:15:46;16.83;;;11.27;;
57113;SDS011;42994;51.606;9.988;2022-09-30T07:18:16;15.13;;;10.15;;
57113;SDS011;42994;51.606;9.988;2022-09-30T07:20:48;16.88;;;10.55;;
57113;SDS011;42994;51.606;9.988;2022-09-30T07:23:15;15.68;;;11.32;;
57113;SDS011;42994;51.606;9.988;2022-09-30T07:25:49;24.75;;;17.35;;
57113;SDS011;42994;51.606;9.988;2022-09-30T07:28:18;19.95;;;13.48;;
57113;SDS011;42994;51.606;9.988;2022-09-30T07:30:45;42.10;;;19.58;;
57113;SDS011;42994;51.606;9.988;2022-09-30T07:33:11;40.47;;;19.95;;
57113;SDS011;42994;51.606;9.988;2022-09-30T07:35:42;41.63;;;21.98;;
57113;SDS011;42994;51.606;9.988;2022-09-30T07:38:16;38.60;;;19.58;;
57113;SDS011;42994;51.606;9.988;2022-09-30T07:40:49;43.00;;;19.45;;
57113;SDS011;42994;51.606;9.988;2022-09-30T07:43:17;52.47;;;22.65;;
57113;SDS011;42994;51.606;9.988;2022-09-30T07:45:45;62.88;;;26.20;;
57113;SDS011;42994;51.606;9.988;2022-09-30T07:48:12;83.60;;;32.25;;
57113;SDS011;42994;51.606;9.988;2022-09-30T07:51:08;65.35;;;27.77;;
57113;SDS011;42994;51.606;9.988;2022-09-30T07:53:36;38.90;;;17.20;;
57113;SDS011;42994;51.606;9.988;2022-09-30T07:56:03;29.92;;;16.48;;
57113;SDS011;42994;51.606;9.988;2022-09-30T07:58:30;19.50;;;10.98;;
57113;SDS011;42994;51.606;9.988;2022-09-30T08:00:57;12.85;;;9.40;;
57113;SDS011;42994;51.606;9.988;2022-09-30T08:03:24;15.55;;;10.00;;
57113;SDS011;42994;51.606;9.988;2022-09-30T08:05:51;18.80;;;11.55;;
57113;SDS011;42994;51.606;9.988;2022-09-30T08:08:19;18.17;;;10.32;;
57113;SDS011;42994;51.606;9.988;2022-09-30T08:10:46;19.20;;;11.02;;
57113;SDS011;42994;51.606;9.988;2022-09-30T08:13:13;15.00;;;10.90;;
57113;SDS011;42994;51.606;9.988;2022-09-30T08:15:41;18.42;;;11.65;;
57113;SDS011;42994;51.606;9.988;2022-09-30T08:18:08;23.42;;;12.15;;
57113;SDS011;42994;51.606;9.988;2022-09-30T08:20:34;19.63;;;12.63;;
57113;SDS011;42994;51.606;9.988;2022-09-30T08:23:01;18.40;;;12.15;;
57113;SDS011;42994;51.606;9.988;2022-09-30T08:25:29;22.40;;;13.25;;
57113;SDS011;42994;51.606;9.988;2022-09-30T08:27:55;22.40;;;12.85;;
57113;SDS011;42994;51.606;9.988;2022-09-30T08:30:22;27.00;;;14.00;;
57113;SDS011;42994;51.606;9.988;2022-09-30T08:32:49;19.70;;;13.57;;
57113;SDS011;42994;51.606;9.988;2022-09-30T08:35:15;20.77;;;12.90;;
57113;SDS011;42994;51.606;9.988;2022-09-30T08:37:42;24.83;;;14.05;;
57113;SDS011;42994;51.606;9.988;2022-09-30T08:40:10;21.73;;;13.82;;
57113;SDS011;42994;51.606;9.988;2022-09-30T08:42:53;22.35;;;13.80;;
57113;SDS011;42994;51.606;9.988;2022-09-30T08:45:32;19.02;;;12.23;;
57113;SDS011;42994;51.606;9.988;2022-09-30T08:48:07;17.90;;;12.65;;
57113;SDS011;42994;51.606;9.988;2022-09-30T08:50:48;18.45;;;12.75;;
57113;SDS011;42994;51.606;9.988;2022-09-30T08:53:24;19.45;;;13.55;;
57113;SDS011;42994;51.606;9.988;2022-09-30T08:55:54;19.50;;;13.63;;
57113;SDS011;42994;51.606;9.988;2022-09-30T09:00:56;17.02;;;10.27;;
57113;SDS011;42994;51.606;9.988;2022-09-30T09:03:27;13.07;;;10.40;;
57113;SDS011;42994;51.606;9.988;2022-09-30T09:06:00;13.35;;;11.02;;
57113;SDS011;42994;51.606;9.988;2022-09-30T09:08:47;12.68;;;10.20;;
57113;SDS011;42994;51.606;9.988;2022-09-30T09:11:38;15.57;;;11.10;;
57113;SDS011;42994;51.606;9.988;2022-09-30T09:14:17;16.92;;;11.07;;
57113;SDS011;42994;51.606;9.988;2022-09-30T09:16:56;13.68;;;10.25;;
57113;SDS011;42994;51.606;9.988;2022-09-30T09:19:35;11.18;;;8.95;;
57113;SDS011;42994;51.606;9.988;2022-09-30T09:22:03;11.43;;;8.43;;
57113;SDS011;42994;51.606;9.988;2022-09-30T09:24:33;9.48;;;8.18;;
57113;SDS011;42994;51.606;9.988;2022-09-30T09:27:09;8.70;;;6.60;;
57113;SDS011;42994;51.606;9.988;2022-09-30T09:29:47;8.05;;;6.22;;
57113;SDS011;42994;51.606;9.988;2022-09-30T09:32:21;8.80;;;6.65;;
57113;SDS011;42994;51.606;9.988;2022-09-30T09:34:51;5.20;;;3.90;;
57113;SDS011;42994;51.606;9.988;2022-09-30T09:37:24;2.50;;;2.28;;
57113;SDS011;42994;51.606;9.988;2022-09-30T09:40:21;2.35;;;1.80;;
57113;SDS011;42994;51.606;9.988;2022-09-30T09:43:01;3.15;;;2.10;;
57113;SDS011;42994;51.606;9.988;2022-09-30T09:45:39;6.03;;;1.85;;
57113;SDS011;42994;51.606;9.988;2022-09-30T09:48:10;3.03;;;1.90;;
57113;SDS011;42994;51.606;9.988;2022-09-30T09:50:44;4.93;;;3.00;;
57113;SDS011;42994;51.606;9.988;2022-09-30T09:53:27;5.53;;;1.90;;
57113;SDS011;42994;51.606;9.988;2022-09-30T09:56:04;2.13;;;1.80;;
57113;SDS011;42994;51.606;9.988;2022-09-30T10:01:36;2.80;;;1.77;;
57113;SDS011;42994;51.606;9.988;2022-09-30T10:04:09;1.73;;;1.63;;
57113;SDS011;42994;51.606;9.988;2022-09-30T10:06:46;2.05;;;1.50;;
57113;SDS011;42994;51.606;9.988;2022-09-30T10:09:22;1.90;;;1.48;;
57113;SDS011;42994;51.606;9.988;2022-09-30T10:11:51;3.25;;;1.10;;
57113;SDS011;42994;51.606;9.988;2022-09-30T10:14:54;2.03;;;1.40;;
57113;SDS011;42994;51.606;9.988;2022-09-30T10:17:26;1.75;;;1.60;;
57113;SDS011;42994;51.606;9.988;2022-09-30T10:19:57;4.50;;;2.30;;
57113;SDS011;42994;51.606;9.988;2022-09-30T10:22:26;7.22;;;3.40;;
57113;SDS011;42994;51.606;9.988;2022-09-30T10:25:08;8.07;;;4.10;;
57113;SDS011;42994;51.606;9.988;2022-09-30T10:27:48;2.67;;;2.40;;
57113;SDS011;42994;51.606;9.988;2022-09-30T10:33:15;3.25;;;1.75;;
57113;SDS011;42994;51.606;9.988;2022-09-30T10:35:52;3.17;;;1.20;;
57113;SDS011;42994;51.606;9.988;2022-09-30T10:38:35;2.65;;;1.30;;
57113;SDS011;42994;51.606;9.988;2022-09-30T10:41:10;3.72;;;2.20;;
57113;SDS011;42994;51.606;9.988;2022-09-30T10:43:38;1.65;;;1.33;;
57113;SDS011;42994;51.606;9.988;2022-09-30T10:48:37;2.78;;;1.95;;
57113;SDS011;42994;51.606;9.988;2022-09-30T10:51:05;2.00;;;1.75;;
57113;SDS011;42994;51.606;9.988;2022-09-30T10:53:49;2.88;;;1.52;;
57113;SDS011;42994;51.606;9.988;2022-09-30T10:56:30;6.15;;;3.22;;
57113;SDS011;42994;51.606;9.988;2022-09-30T10:58:58;3.00;;;2.13;;
57113;SDS011;42994;51.606;9.988;2022-09-30T11:01:28;6.40;;;2.88;;
57113;SDS011;42994;51.606;9.988;2022-09-30T11:04:02;5.47;;;3.03;;
57113;SDS011;42994;51.606;9.988;2022-09-30T11:06:37;4.60;;;3.58;;
57113;SDS011;42994;51.606;9.988;2022-09-30T11:09:05;4.65;;;3.50;;
57113;SDS011;42994;51.606;9.988;2022-09-30T11:11:37;3.92;;;3.50;;
57113;SDS011;42994;51.606;9.988;2022-09-30T11:14:13;5.82;;;3.33;;
57113;SDS011;42994;51.606;9.988;2022-09-30T11:16:56;4.63;;;3.08;;
57113;SDS011;42994;51.606;9.988;2022-09-30T11:19:34;5.22;;;3.58;;
57113;SDS011;42994;51.606;9.988;2022-09-30T11:22:13;5.78;;;4.10;;
57113;SDS011;42994;51.606;9.988;2022-09-30T11:24:52;4.85;;;4.43;;
57113;SDS011;42994;51.606;9.988;2022-09-30T11:27:22;5.93;;;4.95;;
57113;SDS011;42994;51.606;9.988;2022-09-30T11:30:03;4.93;;;4.53;;
57113;SDS011;42994;51.606;9.988;2022-09-30T11:32:42;7.18;;;4.90;;
57113;SDS011;42994;51.606;9.988;2022-09-30T11:35:21;5.05;;;4.15;;
57113;SDS011;42994;51.606;9.988;2022-09-30T11:38:06;6.55;;;4.43;;
57113;SDS011;42994;51.606;9.988;2022-09-30T11:40:37;6.57;;;4.57;;
57113;SDS011;42994;51.606;9.988;2022-09-30T11:43:13;5.07;;;4.47;;
57113;SDS011;42994;51.606;9.988;2022-09-30T11:46:04;5.10;;;4.43;;
57113;SDS011;42994;51.606;9.988;2022-09-30T11:48:44;5.28;;;4.78;;
57113;SDS011;42994;51.606;9.988;2022-09-30T11:51:27;4.55;;;4.15;;
57113;SDS011;42994;51.606;9.988;2022-09-30T11:54:04;6.35;;;4.40;;
57113;SDS011;42994;51.606;9.988;2022-09-30T11:56:45;5.68;;;4.70;;
57113;SDS011;42994;51.606;9.988;2022-09-30T11:59:21;8.55;;;4.72;;
57113;SDS011;42994;51.606;9.988;2022-09-30T12:01:52;8.30;;;5.05;;
57113;SDS011;42994;51.606;9.988;2022-09-30T12:04:21;4.97;;;4.55;;
57113;SDS011;42994;51.606;9.988;2022-09-30T12:06:56;10.55;;;8.27;;
57113;SDS011;42994;51.606;9.988;2022-09-30T12:09:29;6.03;;;4.82;;
57113;SDS011;42994;51.606;9.988;2022-09-30T12:12:02;7.05;;;4.45;;
57113;SDS011;42994;51.606;9.988;2022-09-30T12:14:40;5.13;;;3.50;;
57113;SDS011;42994;51.606;9.988;2022-09-30T12:17:11;3.90;;;2.60;;
57113;SDS011;42994;51.606;9.988;2022-09-30T12:19:46;2.10;;;1.90;;
57113;SDS011;42994;51.606;9.988;2022-09-30T12:22:17;4.15;;;2.90;;
57113;SDS011;42994;51.606;9.988;2022-09-30T12:24:49;3.35;;;2.30;;
57113;SDS011;42994;51.606;9.988;2022-09-30T12:27:17;10.38;;;2.83;;
57113;SDS011;42994;51.606;9.988;2022-09-30T12:29:53;4.97;;;2.70;;
57113;SDS011;42994;51.606;9.988;2022-09-30T12:35:50;5.72;;;3.30;;
57113;SDS011;42994;51.606;9.988;2022-09-30T12:38:40;2.00;;;1.63;;
57113;SDS011;42994;51.606;9.988;2022-09-30T12:41:42;1.50;;;1.40;;
57113;SDS011;42994;51.606;9.988;2022-09-30T12:47:19;2.85;;;1.60;;
57113;SDS011;42994;51.606;9.988;2022-09-30T12:49:55;2.25;;;1.90;;
57113;SDS011;42994;51.606;9.988;2022-09-30T12:52:24;1.88;;;1.40;;
57113;SDS011;42994;51.606;9.988;2022-09-30T12:54:59;2.42;;;1.25;;
57113;SDS011;42994;51.606;9.988;2022-09-30T12:57:31;4.53;;;1.50;;
57113;SDS011;42994;51.606;9.988;2022-09-30T13:00:04;2.75;;;1.10;;
57113;SDS011;42994;51.606;9.988;2022-09-30T13:02:39;3.72;;;1.40;;
57113;SDS011;42994;51.606;9.988;2022-09-30T13:11:29;2.10;;;1.20;;
57113;SDS011;42994;51.606;9.988;2022-09-30T13:14:01;1.75;;;1.17;;
57113;SDS011;42994;51.606;9.988;2022-09-30T13:16:59;1.38;;;1.27;;
57113;SDS011;42994;51.606;9.988;2022-09-30T13:25:11;1.58;;;1.23;;
57113;SDS011;42994;51.606;9.988;2022-09-30T13:27:41;2.67;;;1.42;;
57113;SDS011;42994;51.606;9.988;2022-09-30T13:36:14;3.10;;;1.35;;
57113;SDS011;42994;51.606;9.988;2022-09-30T13:38:43;3.85;;;1.30;;
57113;SDS011;42994;51.606;9.988;2022-09-30T13:41:13;1.90;;;1.50;;
57113;SDS011;42994;51.606;9.988;2022-09-30T13:43:49;1.70;;;1.48;;
57113;SDS011;42994;51.606;9.988;2022-09-30T13:46:27;2.20;;;1.58;;
57113;SDS011;42994;51.606;9.988;2022-09-30T13:48:59;1.08;;;1.05;;
57113;SDS011;42994;51.606;9.988;2022-09-30T13:51:30;4.78;;;1.63;;
57113;SDS011;42994;51.606;9.988;2022-09-30T13:53:58;3.95;;;2.70;;
57113;SDS011;42994;51.606;9.988;2022-09-30T13:56:32;1.60;;;1.50;;
57113;SDS011;42994;51.606;9.988;2022-09-30T13:59:12;2.00;;;1.30;;
57113;SDS011;42994;51.606;9.988;2022-09-30T14:01:58;3.80;;;1.35;;
57113;SDS011;42994;51.606;9.988;2022-09-30T14:08:06;1.17;;;1.00;;
57113;SDS011;42994;51.606;9.988;2022-09-30T14:10:51;2.55;;;0.90;;
57113;SDS011;42994;51.606;9.988;2022-09-30T14:13:34;3.30;;;1.15;;
57113;SDS011;42994;51.606;9.988;2022-09-30T14:16:23;2.42;;;1.08;;
57113;SDS011;42994;51.606;9.988;2022-09-30T14:19:15;6.22;;;1.50;;
57113;SDS011;42994;51.606;9.988;2022-09-30T14:21:52;0.93;;;0.88;;
57113;SDS011;42994;51.606;9.988;2022-09-30T14:24:23;4.70;;;1.40;;
57113;SDS011;42994;51.606;9.988;2022-09-30T14:27:08;1.65;;;1.17;;
57113;SDS011;42994;51.606;9.988;2022-09-30T14:29:49;2.70;;;1.73;;
57113;SDS011;42994;51.606;9.988;2022-09-30T14:32:26;1.15;;;1.05;;
57113;SDS011;42994;51.606;9.988;2022-09-30T14:34:54;1.77;;;1.60;;
57113;SDS011;42994;51.606;9.988;2022-09-30T14:37:24;2.10;;;1.23;;
57113;SDS011;42994;51.606;9.988;2022-09-30T14:39:54;3.38;;;1.40;;
57113;SDS011;42994;51.606;9.988;2022-09-30T14:42:22;1.98;;;0.90;;
57113;SDS011;42994;51.606;9.988;2022-09-30T14:44:54;1.15;;;1.08;;
57113;SDS011;42994;51.606;9.988;2022-09-30T14:47:30;2.00;;;1.85;;
57113;SDS011;42994;51.606;9.988;2022-09-30T14:49:58;4.38;;;2.05;;
57113;SDS011;42994;51.606;9.988;2022-09-30T14:52:35;2.40;;;1.70;;
57113;SDS011;42994;51.606;9.988;2022-09-30T14:55:15;2.10;;;1.27;;
57113;SDS011;42994;51.606;9.988;2022-09-30T14:57:46;4.57;;;1.65;;
57113;SDS011;42994;51.606;9.988;2022-09-30T15:00:17;1.88;;;1.42;;
57113;SDS011;42994;51.606;9.988;2022-09-30T15:02:46;2.45;;;1.10;;
57113;SDS011;42994;51.606;9.988;2022-09-30T15:05:14;2.47;;;1.00;;
57113;SDS011;42994;51.606;9.988;2022-09-30T15:07:42;2.65;;;1.10;;
57113;SDS011;42994;51.606;9.988;2022-09-30T15:10:15;1.38;;;1.13;;
57113;SDS011;42994;51.606;9.988;2022-09-30T15:12:44;2.85;;;1.40;;
57113;SDS011;42994;51.606;9.988;2022-09-30T15:15:26;3.58;;;1.30;;
57113;SDS011;42994;51.606;9.988;2022-09-30T15:18:07;3.03;;;1.60;;
57113;SDS011;42994;51.606;9.988;2022-09-30T15:20:50;2.40;;;1.30;;
57113;SDS011;42994;51.606;9.988;2022-09-30T15:23:20;3.40;;;1.30;;
57113;SDS011;42994;51.606;9.988;2022-09-30T15:25:50;1.20;;;1.10;;
57113;SDS011;42994;51.606;9.988;2022-09-30T15:28:18;1.90;;;1.38;;
57113;SDS011;42994;51.606;9.988;2022-09-30T15:30:44;1.88;;;0.70;;
57113;SDS011;42994;51.606;9.988;2022-09-30T15:33:14;0.95;;;0.95;;
57113;SDS011;42994;51.606;9.988;2022-09-30T15:35:43;1.95;;;1.35;;
57113;SDS011;42994;51.606;9.988;2022-09-30T15:38:14;2.72;;;1.23;;
57113;SDS011;42994;51.606;9.988;2022-09-30T15:40:45;5.07;;;1.70;;
57113;SDS011;42994;51.606;9.988;2022-09-30T15:43:29;5.75;;;1.27;;
57113;SDS011;42994;51.606;9.988;2022-09-30T15:46:06;2.05;;;1.48;;
57113;SDS011;42994;51.606;9.988;2022-09-30T15:48:44;3.30;;;1.33;;
57113;SDS011;42994;51.606;9.988;2022-09-30T15:51:28;2.58;;;1.40;;
57113;SDS011;42994;51.606;9.988;2022-09-30T15:53:59;1.45;;;1.35;;
57113;SDS011;42994;51.606;9.988;2022-09-30T15:56:32;1.80;;;1.67;;
57113;SDS011;42994;51.606;9.988;2022-09-30T15:59:00;3.60;;;2.35;;